createdAt,value
2017-10-03T00:00:58.305Z,15.70
2017-10-03T00:03:32.099Z,15.70
2017-10-03T00:06:05.758Z,15.70
2017-10-03T00:08:39.496Z,15.70
2017-10-03T00:11:13.300Z,15.60
2017-10-03T00:13:46.910Z,15.60
2017-10-03T00:16:20.581Z,15.70
2017-10-03T00:18:54.192Z,15.70
2017-10-03T00:21:28.524Z,15.60
2017-10-03T00:24:02.873Z,15.60
2017-10-03T00:26:36.437Z,15.60
2017-10-03T00:29:10.001Z,15.60
2017-10-03T00:31:43.546Z,15.50
2017-10-03T00:34:17.138Z,15.50
2017-10-03T00:36:50.997Z,15.50
2017-10-03T00:39:24.556Z,15.50
2017-10-03T00:41:59.077Z,15.50
2017-10-03T00:44:32.668Z,15.50
2017-10-03T00:47:06.241Z,15.50
2017-10-03T00:49:39.982Z,15.50
2017-10-03T00:52:14.333Z,15.40
2017-10-03T00:54:48.102Z,15.40
2017-10-03T00:57:21.590Z,15.40
2017-10-03T00:59:55.264Z,15.40
2017-10-03T01:02:29.021Z,15.40
2017-10-03T01:05:02.805Z,15.40
2017-10-03T01:07:36.368Z,15.50
2017-10-03T01:10:10.857Z,15.50
2017-10-03T01:12:44.632Z,15.50
2017-10-03T01:15:18.242Z,15.50
2017-10-03T01:17:51.736Z,15.50
2017-10-03T01:20:25.333Z,15.50
2017-10-03T01:22:59.849Z,15.40
2017-10-03T01:25:33.643Z,15.40
2017-10-03T01:28:07.409Z,15.50
2017-10-03T01:30:40.973Z,15.40
2017-10-03T01:33:14.668Z,15.40
2017-10-03T01:35:49.035Z,15.40
2017-10-03T01:38:22.589Z,15.40
2017-10-03T01:40:56.289Z,15.50
2017-10-03T01:43:30.098Z,15.50
2017-10-03T01:46:03.687Z,15.50
2017-10-03T01:48:37.302Z,15.50
2017-10-03T01:51:10.881Z,15.40
2017-10-03T01:53:44.485Z,15.40
2017-10-03T01:56:19.503Z,15.40
2017-10-03T01:58:53.135Z,15.40
2017-10-03T02:01:26.704Z,15.40
2017-10-03T02:04:00.314Z,15.50
2017-10-03T02:06:33.941Z,15.50
2017-10-03T02:09:07.630Z,15.50
2017-10-03T02:11:41.970Z,15.40
2017-10-03T02:14:15.642Z,15.40
2017-10-03T02:16:49.278Z,15.40
2017-10-03T02:19:22.965Z,15.40
2017-10-03T02:21:56.481Z,15.40
2017-10-03T02:24:30.173Z,15.50
2017-10-03T02:27:03.773Z,15.40
2017-10-03T02:29:37.570Z,15.40
2017-10-03T02:32:11.270Z,15.30
2017-10-03T02:34:46.305Z,15.30
2017-10-03T02:37:19.834Z,15.30
2017-10-03T02:39:53.542Z,15.40
2017-10-03T02:42:27.003Z,15.40
2017-10-03T02:45:00.717Z,15.40
2017-10-03T02:47:34.310Z,15.40
2017-10-03T02:50:07.914Z,15.30
2017-10-03T02:52:41.469Z,15.30
2017-10-03T02:55:15.116Z,15.30
2017-10-03T02:57:49.609Z,15.20
2017-10-03T03:00:23.254Z,15.20
2017-10-03T03:02:57.645Z,15.20
2017-10-03T03:05:32.537Z,15.30
2017-10-03T03:08:06.037Z,15.20
2017-10-03T03:10:39.666Z,15.30
2017-10-03T03:13:13.242Z,15.30
2017-10-03T03:15:47.368Z,15.20
2017-10-03T03:18:21.027Z,15.20
2017-10-03T03:20:54.493Z,15.20
2017-10-03T03:23:28.106Z,15.30
2017-10-03T03:26:01.814Z,15.20
2017-10-03T03:28:35.461Z,15.20
2017-10-03T03:31:09.110Z,15.20
2017-10-03T03:33:42.726Z,15.20
2017-10-03T03:36:16.278Z,15.20
2017-10-03T03:38:49.778Z,15.20
2017-10-03T03:41:24.964Z,15.20
2017-10-03T03:43:58.762Z,15.20
2017-10-03T03:46:32.353Z,15.20
2017-10-03T03:49:06.261Z,15.30
2017-10-03T03:51:40.658Z,15.20
2017-10-03T03:54:15.069Z,15.20
2017-10-03T03:56:48.685Z,15.20
2017-10-03T03:59:22.261Z,15.20
2017-10-03T04:01:55.782Z,15.20
2017-10-03T04:04:29.352Z,15.20
2017-10-03T04:07:03.110Z,15.10
2017-10-03T04:09:38.261Z,15.20
2017-10-03T04:12:11.925Z,15.20
2017-10-03T04:14:45.500Z,15.20
2017-10-03T04:17:19.231Z,15.20
2017-10-03T04:19:53.063Z,15.20
2017-10-03T04:22:26.554Z,15.20
2017-10-03T04:25:00.170Z,15.20
2017-10-03T04:27:33.851Z,15.20
2017-10-03T04:30:08.146Z,15.10
2017-10-03T04:32:41.779Z,15.10
2017-10-03T04:35:15.386Z,15.20
2017-10-03T04:37:49.077Z,15.20
2017-10-03T04:40:22.696Z,15.20
2017-10-03T04:42:56.486Z,15.20
2017-10-03T04:45:30.099Z,15.20
2017-10-03T04:48:03.821Z,15.20
2017-10-03T04:50:37.329Z,15.20
2017-10-03T04:53:10.941Z,15.20
2017-10-03T04:55:44.462Z,15.20
2017-10-03T04:58:17.996Z,15.20
2017-10-03T05:00:52.242Z,15.20
2017-10-03T05:03:25.802Z,15.10
2017-10-03T05:05:59.412Z,15.10
2017-10-03T05:08:33.173Z,15.00
2017-10-03T05:11:07.586Z,15.00
2017-10-03T05:13:41.229Z,15.00
2017-10-03T05:16:14.676Z,15.00
2017-10-03T05:18:48.946Z,15.00
2017-10-03T05:21:22.490Z,15.00
2017-10-03T05:23:56.193Z,15.00
2017-10-03T05:26:30.161Z,15.00
2017-10-03T05:29:03.753Z,15.00
2017-10-03T05:31:37.605Z,14.90
2017-10-03T05:34:11.276Z,14.90
2017-10-03T05:36:44.861Z,14.90
2017-10-03T05:39:18.476Z,14.90
2017-10-03T05:41:52.164Z,14.90
2017-10-03T05:44:25.751Z,14.90
2017-10-03T05:47:00.246Z,14.90
2017-10-03T05:49:33.894Z,14.90
2017-10-03T05:52:07.488Z,14.90
2017-10-03T05:54:41.202Z,15.00
2017-10-03T05:57:14.707Z,15.00
2017-10-03T05:59:48.393Z,15.00
2017-10-03T06:02:23.110Z,14.90
2017-10-03T06:04:57.621Z,14.90
2017-10-03T06:07:31.114Z,14.90
2017-10-03T06:10:04.713Z,14.90
2017-10-03T06:12:38.322Z,14.90
2017-10-03T06:15:12.056Z,14.90
2017-10-03T06:17:45.654Z,14.90
2017-10-03T06:20:19.120Z,15.00
2017-10-03T06:22:52.744Z,14.90
2017-10-03T06:25:26.250Z,14.90
2017-10-03T06:27:59.830Z,14.90
2017-10-03T06:30:33.549Z,15.00
2017-10-03T06:33:07.454Z,15.00
2017-10-03T06:35:41.255Z,15.00
2017-10-03T06:38:14.852Z,15.00
2017-10-03T06:40:48.437Z,15.00
2017-10-03T06:43:22.034Z,15.00
2017-10-03T06:45:55.687Z,15.00
2017-10-03T06:48:29.241Z,15.00
2017-10-03T06:51:02.878Z,15.00
2017-10-03T06:53:36.675Z,15.10
2017-10-03T06:56:10.492Z,15.10
2017-10-03T06:58:47.970Z,15.10
2017-10-03T07:01:21.670Z,15.10
2017-10-03T07:03:55.181Z,15.00
2017-10-03T07:06:29.602Z,15.10
2017-10-03T07:09:03.169Z,15.10
2017-10-03T07:11:36.689Z,15.10
2017-10-03T07:14:10.250Z,15.10
2017-10-03T07:16:43.972Z,15.10
2017-10-03T07:19:17.801Z,15.10
2017-10-03T07:21:51.405Z,15.00
2017-10-03T07:24:24.967Z,15.10
2017-10-03T07:26:58.825Z,15.10
2017-10-03T07:29:32.412Z,15.10
2017-10-03T07:32:06.216Z,15.00
2017-10-03T07:34:39.779Z,15.10
2017-10-03T07:37:13.449Z,15.10
2017-10-03T07:39:47.186Z,15.00
2017-10-03T07:42:20.698Z,15.00
2017-10-03T07:44:54.322Z,15.10
2017-10-03T07:47:28.441Z,15.10
2017-10-03T07:50:02.043Z,15.10
2017-10-03T07:52:35.598Z,15.10
2017-10-03T07:55:09.957Z,15.10
2017-10-03T07:57:43.411Z,15.10
2017-10-03T08:00:17.067Z,15.20
2017-10-03T08:02:50.634Z,15.10
2017-10-03T08:05:24.213Z,15.10
2017-10-03T08:07:57.924Z,15.10
2017-10-03T08:10:32.395Z,15.20
2017-10-03T08:13:06.318Z,15.20
2017-10-03T08:15:39.953Z,15.50
2017-10-03T08:18:13.707Z,15.60
2017-10-03T08:20:47.394Z,15.70
2017-10-03T08:23:20.866Z,15.90
2017-10-03T08:25:54.397Z,16.00
2017-10-03T08:28:28.055Z,16.10
2017-10-03T08:31:01.706Z,16.20
2017-10-03T08:33:35.610Z,16.30
2017-10-03T08:36:09.185Z,16.40
2017-10-03T08:38:42.757Z,16.50
2017-10-03T08:41:16.410Z,16.50
2017-10-03T08:43:49.969Z,16.50
2017-10-03T08:46:23.610Z,16.60
2017-10-03T08:48:58.035Z,16.60
2017-10-03T08:51:32.452Z,16.60
2017-10-03T08:54:06.154Z,16.60
2017-10-03T08:56:39.712Z,16.60
2017-10-03T08:59:13.333Z,16.70
2017-10-03T09:01:46.962Z,16.70
2017-10-03T09:04:20.657Z,16.80
2017-10-03T09:06:54.261Z,16.80
2017-10-03T09:09:28.197Z,16.70
2017-10-03T09:12:01.970Z,16.60
2017-10-03T09:14:36.081Z,16.50
2017-10-03T09:17:09.796Z,16.30
2017-10-03T09:19:43.294Z,16.30
2017-10-03T09:22:17.733Z,16.40
2017-10-03T09:24:51.430Z,16.50
2017-10-03T09:27:24.910Z,16.60
2017-10-03T09:29:59.328Z,16.50
2017-10-03T09:32:33.653Z,16.40
2017-10-03T09:35:07.220Z,16.40
2017-10-03T09:37:40.826Z,16.40
2017-10-03T09:40:14.570Z,16.30
2017-10-03T09:42:48.159Z,16.30
2017-10-03T09:45:21.665Z,16.40
2017-10-03T09:47:55.217Z,16.60
2017-10-03T09:50:28.975Z,16.60
2017-10-03T09:53:02.554Z,16.70
2017-10-03T09:55:36.250Z,16.70
2017-10-03T09:58:09.862Z,16.70
2017-10-03T10:00:43.455Z,16.60
2017-10-03T10:03:17.958Z,16.50
2017-10-03T10:05:51.594Z,16.50
2017-10-03T10:08:25.209Z,16.50
2017-10-03T10:11:00.298Z,16.30
2017-10-03T10:13:33.914Z,16.30
2017-10-03T10:16:07.422Z,16.20
2017-10-03T10:18:40.958Z,16.20
2017-10-03T10:21:14.550Z,16.40
2017-10-03T10:23:48.317Z,16.60
2017-10-03T10:26:21.906Z,16.70
2017-10-03T10:28:55.629Z,16.80
2017-10-03T10:31:29.372Z,16.80
2017-10-03T10:34:03.741Z,16.80
2017-10-03T10:36:38.269Z,16.80
2017-10-03T10:39:11.937Z,16.80
2017-10-03T10:41:46.290Z,17.00
2017-10-03T10:44:19.891Z,16.90
2017-10-03T10:46:53.471Z,17.00
2017-10-03T10:49:27.076Z,17.00
2017-10-03T10:52:00.801Z,16.90
2017-10-03T10:54:34.508Z,16.80
2017-10-03T10:57:08.150Z,16.70
2017-10-03T10:59:41.706Z,16.70
2017-10-03T11:02:16.208Z,16.70
2017-10-03T11:04:50.247Z,16.70
2017-10-03T11:07:23.776Z,16.70
2017-10-03T11:09:57.338Z,16.70
2017-10-03T11:12:30.862Z,16.70
2017-10-03T11:15:05.385Z,16.70
2017-10-03T11:17:39.361Z,16.80
2017-10-03T11:20:13.910Z,17.00
2017-10-03T11:22:59.547Z,17.00
2017-10-03T11:25:33.125Z,17.00
2017-10-03T11:28:06.763Z,17.10
2017-10-03T11:30:40.613Z,17.10
2017-10-03T11:33:14.361Z,17.10
2017-10-03T11:35:48.060Z,17.10
2017-10-03T11:38:22.373Z,17.00
2017-10-03T11:40:56.095Z,16.90
2017-10-03T11:43:29.761Z,16.90
2017-10-03T11:46:03.303Z,16.90
2017-10-03T11:48:36.913Z,16.90
2017-10-03T11:51:11.397Z,17.10
2017-10-03T11:53:45.039Z,17.00
2017-10-03T11:56:18.635Z,17.00
2017-10-03T11:58:53.162Z,16.90
2017-10-03T12:01:26.608Z,16.90
2017-10-03T12:04:00.287Z,16.90
2017-10-03T12:06:33.761Z,16.90
2017-10-03T12:09:07.362Z,16.90
2017-10-03T12:11:40.876Z,17.00
2017-10-03T12:14:14.570Z,17.10
2017-10-03T12:16:48.221Z,17.20
2017-10-03T12:19:21.739Z,17.30
2017-10-03T12:21:55.247Z,17.30
2017-10-03T12:24:28.885Z,17.30
2017-10-03T12:27:02.334Z,17.30
2017-10-03T12:29:36.909Z,17.10
2017-10-03T12:32:11.146Z,17.00
2017-10-03T12:34:44.790Z,17.00
2017-10-03T12:37:18.343Z,16.90
2017-10-03T12:39:51.884Z,16.90
2017-10-03T12:42:25.477Z,16.90
2017-10-03T12:44:58.997Z,17.00
2017-10-03T12:47:32.529Z,17.10
2017-10-03T12:50:06.169Z,17.20
2017-10-03T12:52:40.381Z,17.30
2017-10-03T12:55:13.926Z,17.30
2017-10-03T12:57:47.360Z,17.40
2017-10-03T13:00:21.188Z,17.50
2017-10-03T13:02:55.398Z,17.50
2017-10-03T13:05:29.809Z,17.60
2017-10-03T13:08:03.383Z,17.50
2017-10-03T13:10:36.965Z,17.60
2017-10-03T13:13:10.541Z,17.60
2017-10-03T13:15:44.201Z,17.60
2017-10-03T13:18:17.726Z,17.70
2017-10-03T13:20:53.034Z,17.70
2017-10-03T13:23:26.737Z,17.70
2017-10-03T13:26:00.176Z,17.70
2017-10-03T13:28:33.609Z,17.70
2017-10-03T13:31:07.270Z,17.70
2017-10-03T13:33:40.770Z,17.70
2017-10-03T13:36:15.247Z,17.70
2017-10-03T13:38:48.677Z,17.60
2017-10-03T13:41:23.006Z,17.60
2017-10-03T13:43:56.506Z,17.60
2017-10-03T13:46:30.145Z,17.60
2017-10-03T13:49:03.668Z,17.60
2017-10-03T13:51:37.325Z,17.60
2017-10-03T13:54:10.846Z,17.60
2017-10-03T13:56:44.381Z,17.60
2017-10-03T13:59:17.910Z,17.60
2017-10-03T14:01:52.411Z,17.60
2017-10-03T14:04:25.890Z,17.50
2017-10-03T14:06:59.381Z,17.60
2017-10-03T14:09:32.830Z,17.60
2017-10-03T14:12:06.346Z,17.50
2017-10-03T14:14:40.615Z,17.30
2017-10-03T14:17:14.126Z,17.30
2017-10-03T14:19:47.633Z,17.30
2017-10-03T14:22:21.158Z,17.20
2017-10-03T14:24:55.440Z,17.20
2017-10-03T14:27:28.971Z,17.20
2017-10-03T14:30:02.593Z,17.10
2017-10-03T14:32:36.269Z,17.10
2017-10-03T14:35:10.731Z,17.30
2017-10-03T14:37:44.180Z,17.20
2017-10-03T14:40:17.686Z,17.30
2017-10-03T14:42:51.291Z,17.30
2017-10-03T14:45:24.718Z,17.20
2017-10-03T14:47:58.242Z,17.20
2017-10-03T14:50:32.461Z,17.20
2017-10-03T14:53:06.098Z,17.20
2017-10-03T14:55:39.629Z,17.30
2017-10-03T14:58:13.302Z,17.30
2017-10-03T15:00:46.737Z,17.30
2017-10-03T15:03:20.258Z,17.20
2017-10-03T15:05:53.903Z,17.10
2017-10-03T15:08:27.357Z,17.10
2017-10-03T15:11:00.981Z,17.10
2017-10-03T15:13:34.501Z,17.10
2017-10-03T15:16:08.775Z,17.00
2017-10-03T15:18:42.317Z,17.00
2017-10-03T15:21:15.890Z,17.00
2017-10-03T15:23:49.422Z,17.00
2017-10-03T15:26:23.691Z,16.90
2017-10-03T15:28:57.454Z,16.80
2017-10-03T15:31:31.037Z,16.90
2017-10-03T15:34:04.581Z,16.80
2017-10-03T15:36:39.011Z,16.70
2017-10-03T15:39:12.535Z,16.70
2017-10-03T15:41:46.050Z,16.70
2017-10-03T15:44:19.548Z,16.70
2017-10-03T15:46:52.983Z,16.60
2017-10-03T15:49:26.503Z,16.60
2017-10-03T15:52:00.024Z,16.60
2017-10-03T15:54:34.431Z,16.60
2017-10-03T15:57:08.632Z,16.60
2017-10-03T15:59:42.151Z,16.60
2017-10-03T16:02:15.790Z,16.60
2017-10-03T16:04:49.421Z,16.60
2017-10-03T16:07:22.954Z,16.60
2017-10-03T16:09:56.484Z,16.50
2017-10-03T16:12:30.122Z,16.50
2017-10-03T16:15:03.646Z,16.50
2017-10-03T16:17:37.174Z,16.50
2017-10-03T16:20:10.778Z,16.40
2017-10-03T16:22:45.054Z,16.40
2017-10-03T16:25:19.301Z,16.40
2017-10-03T16:27:52.729Z,16.40
2017-10-03T16:30:26.386Z,16.30
2017-10-03T16:33:00.783Z,16.30
2017-10-03T16:35:34.309Z,16.30
2017-10-03T16:38:07.944Z,16.30
2017-10-03T16:40:41.477Z,16.30
2017-10-03T16:43:15.014Z,16.30
2017-10-03T16:45:48.566Z,16.30
2017-10-03T16:48:22.157Z,16.40
2017-10-03T16:50:55.826Z,16.30
2017-10-03T16:53:29.469Z,16.30
2017-10-03T16:56:03.949Z,16.30
2017-10-03T16:58:37.377Z,16.30
2017-10-03T17:01:10.894Z,16.30
2017-10-03T17:03:45.126Z,16.30
2017-10-03T17:06:18.645Z,16.30
2017-10-03T17:08:52.190Z,16.30
2017-10-03T17:11:25.828Z,16.30
2017-10-03T17:14:00.037Z,16.30
2017-10-03T17:16:33.542Z,16.30
2017-10-03T17:19:07.066Z,16.20
2017-10-03T17:21:40.589Z,16.20
2017-10-03T17:24:14.850Z,16.10
2017-10-03T17:26:49.177Z,16.10
2017-10-03T17:29:22.742Z,16.10
2017-10-03T17:31:56.270Z,16.20
2017-10-03T17:34:29.905Z,16.10
2017-10-03T17:37:03.350Z,16.00
2017-10-03T17:39:36.977Z,16.00
2017-10-03T17:42:10.653Z,16.00
2017-10-03T17:44:44.093Z,16.00
2017-10-03T17:47:17.686Z,16.00
2017-10-03T17:49:51.216Z,16.00
2017-10-03T17:52:24.766Z,16.00
2017-10-03T17:54:58.417Z,16.00
2017-10-03T17:57:32.690Z,16.00
2017-10-03T18:00:06.219Z,16.00
2017-10-03T18:02:40.497Z,16.00
2017-10-03T18:05:14.052Z,16.00
2017-10-03T18:07:47.486Z,16.00
2017-10-03T18:10:21.014Z,16.00
2017-10-03T18:12:55.311Z,16.10
2017-10-03T18:15:29.625Z,16.10
2017-10-03T18:18:03.842Z,16.10
2017-10-03T18:20:37.407Z,16.10
2017-10-03T18:23:10.992Z,16.10
2017-10-03T18:25:45.270Z,16.00
2017-10-03T18:28:19.481Z,16.00
2017-10-03T18:30:53.010Z,16.00
2017-10-03T18:33:27.281Z,16.00
2017-10-03T18:36:00.914Z,16.00
2017-10-03T18:38:35.325Z,16.00
2017-10-03T18:41:09.546Z,16.00
2017-10-03T18:43:43.045Z,15.90
2017-10-03T18:46:17.241Z,16.00
2017-10-03T18:48:50.757Z,16.00
2017-10-03T18:51:24.443Z,16.00
2017-10-03T18:53:57.956Z,16.00
2017-10-03T18:56:32.359Z,16.00
2017-10-03T18:59:06.677Z,15.90
2017-10-03T19:01:40.262Z,16.00
2017-10-03T19:04:14.600Z,15.90
2017-10-03T19:06:48.120Z,16.00
2017-10-03T19:09:22.510Z,16.00
2017-10-03T19:11:56.061Z,16.00
2017-10-03T19:14:29.505Z,16.00
2017-10-03T19:17:03.740Z,16.00
2017-10-03T19:19:37.204Z,16.00
2017-10-03T19:22:10.868Z,16.00
2017-10-03T19:24:44.486Z,15.90
2017-10-03T19:27:18.037Z,15.90
2017-10-03T19:29:52.225Z,15.90
2017-10-03T19:32:25.817Z,16.00
2017-10-03T19:34:59.354Z,16.00
2017-10-03T19:37:32.961Z,16.00
2017-10-03T19:40:06.618Z,15.90
2017-10-03T19:42:40.160Z,15.90
2017-10-03T19:45:13.745Z,15.90
2017-10-03T19:47:47.410Z,16.00
2017-10-03T19:50:20.950Z,16.00
2017-10-03T19:52:55.262Z,15.90
2017-10-03T19:55:29.478Z,15.90
2017-10-03T19:58:03.806Z,15.90
2017-10-03T20:00:37.357Z,15.90
2017-10-03T20:03:11.190Z,15.90
2017-10-03T20:05:44.695Z,15.90
2017-10-03T20:08:18.347Z,15.90
2017-10-03T20:10:52.633Z,15.90
2017-10-03T20:13:26.334Z,15.90
2017-10-03T20:15:59.833Z,15.80
2017-10-03T20:18:33.458Z,15.80
2017-10-03T20:21:07.097Z,15.80
2017-10-03T20:23:40.613Z,15.80
2017-10-03T20:26:14.054Z,15.80
2017-10-03T20:28:48.350Z,15.70
2017-10-03T20:31:21.862Z,15.70
2017-10-03T20:33:55.518Z,15.70
2017-10-03T20:36:29.957Z,15.70
2017-10-03T20:39:03.461Z,15.70
2017-10-03T20:41:36.970Z,15.70
2017-10-03T20:44:10.596Z,15.70
2017-10-03T20:46:44.870Z,15.70
2017-10-03T20:49:18.573Z,15.70
2017-10-03T20:51:51.998Z,15.60
2017-10-03T20:54:25.756Z,15.60
2017-10-03T20:56:59.205Z,15.60
2017-10-03T20:59:32.638Z,15.60
2017-10-03T21:02:06.282Z,15.60
2017-10-03T21:04:39.797Z,15.60
2017-10-03T21:07:14.194Z,15.60
2017-10-03T21:09:47.714Z,15.50
2017-10-03T21:12:21.234Z,15.50
2017-10-03T21:14:54.762Z,15.50
2017-10-03T21:17:28.274Z,15.50
2017-10-03T21:20:01.797Z,15.50
2017-10-03T21:22:35.325Z,15.50
2017-10-03T21:25:08.972Z,15.50
2017-10-03T21:27:42.566Z,15.40
2017-10-03T21:30:16.222Z,15.40
2017-10-03T21:32:49.664Z,15.40
2017-10-03T21:35:24.138Z,15.30
2017-10-03T21:37:57.825Z,15.30
2017-10-03T21:40:32.346Z,15.30
2017-10-03T21:43:10.746Z,15.30
2017-10-03T21:45:44.284Z,15.20
2017-10-03T21:48:17.982Z,15.30
2017-10-03T21:50:51.685Z,15.30
2017-10-03T21:53:25.173Z,15.30
2017-10-03T21:55:58.649Z,15.30
2017-10-03T21:58:32.282Z,15.30
2017-10-03T22:01:05.773Z,15.30
2017-10-03T22:03:39.384Z,15.20
2017-10-03T22:06:13.082Z,15.30
2017-10-03T22:08:47.337Z,15.30
2017-10-03T22:11:20.989Z,15.30
2017-10-03T22:13:54.615Z,15.30
2017-10-03T22:16:28.148Z,15.20
2017-10-03T22:19:01.721Z,15.20
2017-10-03T22:21:36.329Z,15.10
2017-10-03T22:24:09.986Z,15.10
2017-10-03T22:26:44.454Z,15.20
2017-10-03T22:29:18.049Z,15.10
2017-10-03T22:31:51.650Z,15.10
2017-10-03T22:34:25.250Z,15.10
2017-10-03T22:36:58.933Z,15.00
2017-10-03T22:39:32.767Z,15.10
2017-10-03T22:42:06.268Z,15.10
2017-10-03T22:44:39.853Z,15.10
2017-10-03T22:47:13.458Z,15.10
2017-10-03T22:49:47.676Z,15.00
2017-10-03T22:52:26.918Z,15.00
2017-10-03T22:55:00.924Z,15.00
2017-10-03T22:57:35.126Z,15.00
2017-10-03T23:00:08.833Z,15.00
2017-10-03T23:02:43.326Z,15.00
2017-10-03T23:05:16.949Z,15.00
2017-10-03T23:07:50.559Z,15.00
2017-10-03T23:10:24.033Z,15.00
2017-10-03T23:12:57.518Z,15.00
2017-10-03T23:15:31.970Z,15.00
2017-10-03T23:18:05.578Z,15.00
2017-10-03T23:20:39.274Z,15.10
2017-10-03T23:23:12.789Z,15.00
2017-10-03T23:25:46.466Z,15.00
2017-10-03T23:28:20.286Z,15.00
2017-10-03T23:30:53.956Z,15.10
2017-10-03T23:33:27.586Z,15.00
2017-10-03T23:36:01.983Z,15.10
2017-10-03T23:38:36.426Z,15.10
2017-10-03T23:41:10.137Z,15.10
2017-10-03T23:43:43.902Z,15.20
2017-10-03T23:46:17.659Z,15.10
2017-10-03T23:48:51.550Z,15.20
2017-10-03T23:51:25.131Z,15.20
2017-10-03T23:53:58.750Z,15.10
2017-10-03T23:56:32.285Z,15.10
2017-10-03T23:59:06.161Z,15.10
